MV Lockmaster — WDF4136 — position and weather

sailwx.info

Track history (hours):
 
Tides and Currents Weather Stations Pressure Air Temp Water Temp Dewpoint Dewpoint Depression Visibility Wind Speed Wind Dir Waves Ship Positions

MV Lockmaster

Owner: River Construction, Metaire, LA. More information available from US FCC via Universal Licensing System and Coast Guard Vessel Documentation Center.

Last reported at 2015-Mar-04 19:16 UTC. Time now 2015-Mar-04 22:51 UTC.
Position N 29°60' W 089°59'.

Type: Towing. MMSI: 367448420.

Date/timePositionNaut miles runAvg speedWind from/ knotsBaromVisibWave heightAir tempDewpointWater temp
2015-Mar-04 19:16N 29°60' W 089°59'0 0.0
2015-Mar-04 18:19N 29°60' W 089°59'0 0.0
2015-Mar-04 14:16N 29°60' W 089°59'0 0.0
2015-Mar-04 13:30N 29°60' W 089°59'0 0.0
2015-Mar-04 12:29N 29°60' W 089°59'0 0.0
2015-Mar-04 11:33N 29°60' W 089°59'0 0.0
2015-Mar-04 10:32N 29°60' W 089°59'2 0.2
2015-Mar-04 00:26N 29°58' W 090°01'1 0.8
2015-Mar-03 23:27N 29°58' W 090°02'1 0.7
2015-Mar-03 22:31N 29°57' W 090°02'0 0.3
2015-Mar-03 21:31N 29°57' W 090°02'3 2.8
2015-Mar-03 20:32N 29°56' W 089°59'3 3.2
2015-Mar-03 19:33N 29°58' W 090°02'1 1.1
2015-Mar-03 18:33N 29°59' W 090°01'2 2.1
2015-Mar-03 17:32N 29°60' W 089°59'0 0.0
2015-Mar-03 16:33N 29°60' W 089°59'0 0.0
2015-Mar-03 15:33N 29°60' W 089°59'0 0.0
2015-Mar-03 14:33N 29°60' W 089°59'0 0.0
2015-Mar-03 13:32N 29°60' W 089°59'0 0.0
2015-Mar-03 12:31N 29°60' W 089°59'0 0.0
2015-Mar-03 11:33N 29°60' W 089°59'0 0.0
2015-Mar-03 10:27N 29°60' W 089°59'0 0.0
2015-Mar-03 09:18N 29°60' W 089°59'0 0.0
2015-Mar-02 18:19N 30°00' W 089°59'0 0.0
2015-Mar-02 15:25N 30°00' W 089°59'0 0.0
2015-Mar-02 14:16N 29°60' W 089°59'0 0.0
2015-Mar-02 13:31N 30°00' W 089°59'0 0.0
2015-Mar-02 12:27N 29°60' W 089°59'0 0.0
2015-Mar-02 11:24N 30°00' W 089°59'0 0.0
2015-Mar-02 10:28N 29°60' W 089°59'0 0.0
2015-Mar-02 09:32N 30°00' W 089°59'3 3.3
2015-Mar-02 08:33N 29°57' W 090°01'1 0.8
2015-Mar-02 07:33N 29°58' W 090°02'3 2.6
2015-Mar-02 06:33N 29°60' W 089°60'0 0.3
2015-Mar-02 05:33N 30°00' W 089°59'0 0.0
2015-Mar-02 04:28N 30°00' W 089°59'0 0.0
2015-Mar-02 03:26N 29°60' W 089°59'0 0.0
2015-Mar-01 15:18N 30°00' W 089°59'0 0.0
2015-Mar-01 14:23N 30°00' W 089°59'0 0.0
2015-Mar-01 12:23N 30°00' W 089°59'0 0.0
2015-Mar-01 11:29N 30°00' W 089°59'0 0.0
2015-Mar-01 10:17N 30°00' W 089°59'0 0.0
2015-Mar-01 09:27N 30°00' W 089°59'0 0.0
2015-Mar-01 08:31N 30°00' W 089°59'0 0.0
2015-Mar-01 07:33N 30°00' W 089°59'0 0.0
2015-Mar-01 06:32N 30°00' W 089°59'0 0.0
2015-Mar-01 05:33N 30°00' W 089°59'0 0.0
2015-Mar-01 04:31N 30°00' W 089°59'0 0.0
2015-Mar-01 03:32N 30°00' W 089°59'0 0.0
2015-Mar-01 02:31N 30°00' W 089°59'0 0.0
2015-Mar-01 01:33N 30°00' W 089°59'0 0.0
2015-Mar-01 00:33N 30°00' W 089°59'0 0.0
2015-Feb-28 23:33N 30°00' W 089°59'0 0.0
2015-Feb-28 22:07N 30°00' W 089°59'0 0.0
2015-Feb-28 06:26N 29°60' W 089°59'5 6.0
2015-Feb-28 05:33N 30°01' W 089°53'5 5.2
2015-Feb-28 04:32N 30°00' W 089°59'0 0.0
2015-Feb-28 03:30N 30°00' W 089°59'0 0.0
2015-Feb-28 02:32N 29°60' W 089°59'0 0.0
2015-Feb-28 01:32N 29°60' W 089°59'0 0.0
2015-Feb-28 00:31N 29°60' W 089°59'0 0.0
2015-Feb-27 23:27N 30°00' W 089°59'0 0.0
2015-Feb-27 22:32N 30°00' W 089°59'0 0.0
2015-Feb-27 21:33N 30°00' W 089°59'0 0.0
2015-Feb-27 20:33N 29°60' W 089°59'0 0.0
2015-Feb-27 19:33N 30°00' W 089°59'0 0.0
2015-Feb-27 18:32N 30°00' W 089°59'0 0.0
2015-Feb-27 17:31N 30°00' W 089°59'0 0.0
2015-Feb-27 16:33N 29°60' W 089°59'0 0.0
2015-Feb-27 15:16N 29°60' W 089°59'7 0.6
2015-Feb-27 04:09N 29°55' W 090°05'7 1.4
2015-Feb-26 23:10N 30°00' W 089°59'0 0.0
2015-Feb-26 22:31N 30°00' W 089°59'0 0.0
2015-Feb-26 21:28N 30°00' W 089°59'0 0.0
2015-Feb-26 20:29N 30°00' W 089°59'3 3.0
2015-Feb-26 19:33N 29°58' W 090°02'3 0.5
2015-Feb-26 13:22N 30°00' W 089°59'0 0.0
2015-Feb-26 09:17N 30°00' W 089°59'0 0.0
2015-Feb-26 08:32N 30°00' W 089°59'0 0.0
2015-Feb-26 07:31N 30°00' W 089°59'0 0.0
2015-Feb-26 06:30N 30°00' W 089°59'0 0.0
2015-Feb-26 05:32N 29°60' W 089°59'0 0.0
2015-Feb-26 04:33N 29°60' W 089°59'3 2.9
2015-Feb-26 03:32N 29°58' W 090°02'0 0.1
2015-Feb-26 00:34N 29°58' W 090°02'3 2.7
2015-Feb-25 23:33N 29°60' W 089°59'0 0.1
2015-Feb-25 22:32N 30°00' W 089°59'0 0.1
2015-Feb-25 21:30N 30°00' W 089°59'0 0.0
2015-Feb-24 22:31N 29°60' W 089°59'0 0.0
2015-Feb-24 20:33N 29°60' W 089°59'0 0.0
2015-Feb-24 18:28N 29°60' W 089°59'0 0.0
2015-Feb-24 17:32N 29°60' W 089°59'0 0.0
2015-Feb-24 16:31N 29°60' W 089°59'0 0.0
2015-Feb-24 15:33N 29°60' W 089°59'0 0.0
2015-Feb-24 14:33N 29°60' W 089°59'0 0.0
2015-Feb-24 13:32N 29°60' W 089°59'1 1.1
2015-Feb-24 12:18N 30°00' W 089°58'1 1.8
2015-Feb-24 11:32N 29°60' W 089°59'0 0.0
2015-Feb-24 10:33N 29°60' W 089°59'0 0.0
2015-Feb-24 09:33N 29°60' W 089°59'0 0.0
2015-Feb-24 08:30N 29°60' W 089°59'0 0.0
2015-Feb-24 07:31N 29°60' W 089°59'0 0.0
2015-Feb-23 19:27N 29°60' W 089°59'0 0.1
2015-Feb-23 17:29N 29°60' W 089°59'0 0.4
2015-Feb-23 16:31N 29°60' W 089°59'0 0.0
2015-Feb-23 15:30N 29°60' W 089°59'0 0.0
2015-Feb-23 14:33N 29°60' W 089°59'0 0.0
2015-Feb-23 13:31N 29°60' W 089°59'0 0.0
2015-Feb-23 12:31N 29°60' W 089°59'0 0.0
2015-Feb-23 11:33N 29°60' W 089°59'0 0.0
2015-Feb-23 10:33N 29°60' W 089°59'0 0.0
2015-Feb-23 01:17N 29°60' W 089°59'2 2.0
2015-Feb-23 00:22N 29°59' W 090°01'2 2.0
2015-Feb-22 23:33N 29°58' W 090°02'1 1.1
2015-Feb-22 22:25N 29°59' W 090°01'2 2.2
2015-Feb-22 21:31N 29°60' W 089°59'0 0.1
2015-Feb-22 20:30N 30°00' W 089°59'0 0.0
2015-Feb-22 19:26N 30°00' W 089°59'  
Track history (hours):
 
Tides and Currents Weather Stations Pressure Air Temp Water Temp Dewpoint Dewpoint Depression Visibility Wind Speed Wind Dir Waves Ship Positions

MV Lockmaster

Owner: River Construction, Metaire, LA. More information available from US FCC via Universal Licensing System and Coast Guard Vessel Documentation Center.

Last reported at 2015-Mar-04 19:16 UTC. Time now 2015-Mar-04 22:51 UTC.
Position N 29°60' W 089°59'.

Type: Towing. MMSI: 367448420.

Date/timePositionNaut miles runAvg speedWind from/ knotsBaromVisibWave heightAir tempDewpointWater temp
2015-Mar-04 19:16N 29°60' W 089°59'0 0.0
2015-Mar-04 18:19N 29°60' W 089°59'0 0.0
2015-Mar-04 14:16N 29°60' W 089°59'0 0.0
2015-Mar-04 13:30N 29°60' W 089°59'0 0.0
2015-Mar-04 12:29N 29°60' W 089°59'0 0.0
2015-Mar-04 11:33N 29°60' W 089°59'0 0.0
2015-Mar-04 10:32N 29°60' W 089°59'2 0.2
2015-Mar-04 00:26N 29°58' W 090°01'1 0.8
2015-Mar-03 23:27N 29°58' W 090°02'1 0.7
2015-Mar-03 22:31N 29°57' W 090°02'0 0.3
2015-Mar-03 21:31N 29°57' W 090°02'3 2.8
2015-Mar-03 20:32N 29°56' W 089°59'3 3.2
2015-Mar-03 19:33N 29°58' W 090°02'1 1.1
2015-Mar-03 18:33N 29°59' W 090°01'2 2.1
2015-Mar-03 17:32N 29°60' W 089°59'0 0.0
2015-Mar-03 16:33N 29°60' W 089°59'0 0.0
2015-Mar-03 15:33N 29°60' W 089°59'0 0.0
2015-Mar-03 14:33N 29°60' W 089°59'0 0.0
2015-Mar-03 13:32N 29°60' W 089°59'0 0.0
2015-Mar-03 12:31N 29°60' W 089°59'0 0.0
2015-Mar-03 11:33N 29°60' W 089°59'0 0.0
2015-Mar-03 10:27N 29°60' W 089°59'0 0.0
2015-Mar-03 09:18N 29°60' W 089°59'0 0.0
2015-Mar-02 18:19N 30°00' W 089°59'0 0.0
2015-Mar-02 15:25N 30°00' W 089°59'0 0.0
2015-Mar-02 14:16N 29°60' W 089°59'0 0.0
2015-Mar-02 13:31N 30°00' W 089°59'0 0.0
2015-Mar-02 12:27N 29°60' W 089°59'0 0.0
2015-Mar-02 11:24N 30°00' W 089°59'0 0.0
2015-Mar-02 10:28N 29°60' W 089°59'0 0.0
2015-Mar-02 09:32N 30°00' W 089°59'3 3.3
2015-Mar-02 08:33N 29°57' W 090°01'1 0.8
2015-Mar-02 07:33N 29°58' W 090°02'3 2.6
2015-Mar-02 06:33N 29°60' W 089°60'0 0.3
2015-Mar-02 05:33N 30°00' W 089°59'0 0.0
2015-Mar-02 04:28N 30°00' W 089°59'0 0.0
2015-Mar-02 03:26N 29°60' W 089°59'0 0.0
2015-Mar-01 15:18N 30°00' W 089°59'0 0.0
2015-Mar-01 14:23N 30°00' W 089°59'0 0.0
2015-Mar-01 12:23N 30°00' W 089°59'0 0.0
2015-Mar-01 11:29N 30°00' W 089°59'0 0.0
2015-Mar-01 10:17N 30°00' W 089°59'0 0.0
2015-Mar-01 09:27N 30°00' W 089°59'0 0.0
2015-Mar-01 08:31N 30°00' W 089°59'0 0.0
2015-Mar-01 07:33N 30°00' W 089°59'0 0.0
2015-Mar-01 06:32N 30°00' W 089°59'0 0.0
2015-Mar-01 05:33N 30°00' W 089°59'0 0.0
2015-Mar-01 04:31N 30°00' W 089°59'0 0.0
2015-Mar-01 03:32N 30°00' W 089°59'0 0.0
2015-Mar-01 02:31N 30°00' W 089°59'0 0.0
2015-Mar-01 01:33N 30°00' W 089°59'0 0.0
2015-Mar-01 00:33N 30°00' W 089°59'0 0.0
2015-Feb-28 23:33N 30°00' W 089°59'0 0.0
2015-Feb-28 22:07N 30°00' W 089°59'0 0.0
2015-Feb-28 06:26N 29°60' W 089°59'5 6.0
2015-Feb-28 05:33N 30°01' W 089°53'5 5.2
2015-Feb-28 04:32N 30°00' W 089°59'0 0.0
2015-Feb-28 03:30N 30°00' W 089°59'0 0.0
2015-Feb-28 02:32N 29°60' W 089°59'0 0.0
2015-Feb-28 01:32N 29°60' W 089°59'0 0.0
2015-Feb-28 00:31N 29°60' W 089°59'0 0.0
2015-Feb-27 23:27N 30°00' W 089°59'0 0.0
2015-Feb-27 22:32N 30°00' W 089°59'0 0.0
2015-Feb-27 21:33N 30°00' W 089°59'0 0.0
2015-Feb-27 20:33N 29°60' W 089°59'0 0.0
2015-Feb-27 19:33N 30°00' W 089°59'0 0.0
2015-Feb-27 18:32N 30°00' W 089°59'0 0.0
2015-Feb-27 17:31N 30°00' W 089°59'0 0.0
2015-Feb-27 16:33N 29°60' W 089°59'0 0.0
2015-Feb-27 15:16N 29°60' W 089°59'7 0.6
2015-Feb-27 04:09N 29°55' W 090°05'7 1.4
2015-Feb-26 23:10N 30°00' W 089°59'0 0.0
2015-Feb-26 22:31N 30°00' W 089°59'0 0.0
2015-Feb-26 21:28N 30°00' W 089°59'0 0.0
2015-Feb-26 20:29N 30°00' W 089°59'3 3.0
2015-Feb-26 19:33N 29°58' W 090°02'3 0.5
2015-Feb-26 13:22N 30°00' W 089°59'0 0.0
2015-Feb-26 09:17N 30°00' W 089°59'0 0.0
2015-Feb-26 08:32N 30°00' W 089°59'0 0.0
2015-Feb-26 07:31N 30°00' W 089°59'0 0.0
2015-Feb-26 06:30N 30°00' W 089°59'0 0.0
2015-Feb-26 05:32N 29°60' W 089°59'0 0.0
2015-Feb-26 04:33N 29°60' W 089°59'3 2.9
2015-Feb-26 03:32N 29°58' W 090°02'0 0.1
2015-Feb-26 00:34N 29°58' W 090°02'3 2.7
2015-Feb-25 23:33N 29°60' W 089°59'0 0.1
2015-Feb-25 22:32N 30°00' W 089°59'0 0.1
2015-Feb-25 21:30N 30°00' W 089°59'0 0.0
2015-Feb-24 22:31N 29°60' W 089°59'0 0.0
2015-Feb-24 20:33N 29°60' W 089°59'0 0.0
2015-Feb-24 18:28N 29°60' W 089°59'0 0.0
2015-Feb-24 17:32N 29°60' W 089°59'0 0.0
2015-Feb-24 16:31N 29°60' W 089°59'0 0.0
2015-Feb-24 15:33N 29°60' W 089°59'0 0.0
2015-Feb-24 14:33N 29°60' W 089°59'0 0.0
2015-Feb-24 13:32N 29°60' W 089°59'1 1.1
2015-Feb-24 12:18N 30°00' W 089°58'1 1.8
2015-Feb-24 11:32N 29°60' W 089°59'0 0.0
2015-Feb-24 10:33N 29°60' W 089°59'0 0.0
2015-Feb-24 09:33N 29°60' W 089°59'0 0.0
2015-Feb-24 08:30N 29°60' W 089°59'0 0.0
2015-Feb-24 07:31N 29°60' W 089°59'0 0.0
2015-Feb-23 19:27N 29°60' W 089°59'0 0.1
2015-Feb-23 17:29N 29°60' W 089°59'0 0.4
2015-Feb-23 16:31N 29°60' W 089°59'0 0.0
2015-Feb-23 15:30N 29°60' W 089°59'0 0.0
2015-Feb-23 14:33N 29°60' W 089°59'0 0.0
2015-Feb-23 13:31N 29°60' W 089°59'0 0.0
2015-Feb-23 12:31N 29°60' W 089°59'0 0.0
2015-Feb-23 11:33N 29°60' W 089°59'0 0.0
2015-Feb-23 10:33N 29°60' W 089°59'0 0.0
2015-Feb-23 01:17N 29°60' W 089°59'2 2.0
2015-Feb-23 00:22N 29°59' W 090°01'2 2.0
2015-Feb-22 23:33N 29°58' W 090°02'1 1.1
2015-Feb-22 22:25N 29°59' W 090°01'2 2.2
2015-Feb-22 21:31N 29°60' W 089°59'0 0.1
2015-Feb-22 20:30N 30°00' W 089°59'0 0.0
2015-Feb-22 19:26N 30°00' W 089°59'  

Dump ship's entire track history